Saint Marys, Pennsylvania
Current Conditions -  °F | °C
As of 3:53 PM on Thursday 20 Nov 2014 (Local Time) from KDUJ Reporting Station
Overcast Overcast  
Wind Chill:   Ceiling: 4400
Heat Index: 22°   Visibility: 10mi
Dew Point: 10°   Wind: 14mph
Humidity: 60%   Direction: 260°W
Pressure: 29.91"   Gusts: NA
Location:  41.43°N, 78.56°W
Report Text: KDUJ 202053Z AUTO 26012KT 10SM OVC044 M06/M12 A2991 RMK AO2 PK WND 26027/2039 SLP150 T10561122 53009
Loading
Personal Weather Stations






























Interactive Weather Map New forecast layout! Learn more

10-Day Weather Forecast

Advertisements
Track Severe Weather on mobile